createdAt,value
2017-10-24T00:01:11.383Z,8.40
2017-10-24T00:03:38.378Z,8.40
2017-10-24T00:06:04.700Z,8.40
2017-10-24T00:08:31.004Z,8.40
2017-10-24T00:10:57.358Z,8.40
2017-10-24T00:13:24.404Z,8.30
2017-10-24T00:15:52.166Z,8.30
2017-10-24T00:18:19.144Z,8.30
2017-10-24T00:20:45.462Z,8.30
2017-10-24T00:23:12.499Z,8.30
2017-10-24T00:25:38.859Z,8.20
2017-10-24T00:28:05.915Z,8.30
2017-10-24T00:30:33.324Z,8.30
2017-10-24T00:32:59.691Z,8.20
2017-10-24T00:35:26.527Z,8.30
2017-10-24T00:37:53.391Z,8.30
2017-10-24T00:40:19.695Z,8.30
2017-10-24T00:42:46.023Z,8.30
2017-10-24T00:45:12.379Z,8.30
2017-10-24T00:47:39.163Z,8.30
2017-10-24T00:50:06.228Z,8.30
2017-10-24T00:52:32.899Z,8.30
2017-10-24T00:54:59.215Z,8.30
2017-10-24T00:57:25.535Z,8.30
2017-10-24T00:59:53.323Z,8.20
2017-10-24T01:02:19.655Z,8.20
2017-10-24T01:04:46.439Z,8.30
2017-10-24T01:07:12.739Z,8.30
2017-10-24T01:09:39.037Z,8.30
2017-10-24T01:12:05.395Z,8.30
2017-10-24T01:14:32.809Z,8.30
2017-10-24T01:17:00.459Z,8.30
2017-10-24T01:19:27.191Z,8.30
2017-10-24T01:21:53.583Z,8.30
2017-10-24T01:24:20.319Z,8.30
2017-10-24T01:26:46.679Z,8.30
2017-10-24T01:29:14.083Z,8.30
2017-10-24T01:31:40.491Z,8.30
2017-10-24T01:34:07.939Z,8.30
2017-10-24T01:36:35.026Z,8.30
2017-10-24T01:39:01.371Z,8.30
2017-10-24T01:41:28.175Z,8.30
2017-10-24T01:43:55.262Z,8.30
2017-10-24T01:46:21.943Z,8.20
2017-10-24T01:48:48.619Z,8.20
2017-10-24T01:51:16.137Z,8.20
2017-10-24T01:53:42.495Z,8.20
2017-10-24T01:56:08.799Z,8.20
2017-10-24T01:58:35.180Z,8.20
2017-10-24T02:01:01.533Z,8.20
2017-10-24T02:03:28.483Z,8.20
2017-10-24T02:05:55.547Z,8.20
2017-10-24T02:08:21.907Z,8.20
2017-10-24T02:10:48.739Z,8.20
2017-10-24T02:13:15.078Z,8.20
2017-10-24T02:15:41.429Z,8.30
2017-10-24T02:18:08.215Z,8.30
2017-10-24T02:20:35.124Z,8.30
2017-10-24T02:23:01.466Z,8.20
2017-10-24T02:25:28.379Z,8.20
2017-10-24T02:27:55.442Z,8.30
2017-10-24T02:30:21.771Z,8.30
2017-10-24T02:32:48.863Z,8.20
2017-10-24T02:35:15.531Z,8.20
2017-10-24T02:37:41.831Z,8.30
2017-10-24T02:40:08.147Z,8.30
2017-10-24T02:42:34.518Z,8.30
2017-10-24T02:45:01.251Z,8.40
2017-10-24T02:47:28.027Z,8.40
2017-10-24T02:49:54.348Z,8.40
2017-10-24T02:52:21.155Z,8.40
2017-10-24T02:54:47.501Z,8.40
2017-10-24T02:57:13.850Z,8.40
2017-10-24T02:59:40.219Z,8.40
2017-10-24T03:02:06.524Z,8.30
2017-10-24T03:04:33.467Z,8.40
2017-10-24T03:06:59.779Z,8.40
2017-10-24T03:09:27.209Z,8.40
2017-10-24T03:11:54.143Z,8.40
2017-10-24T03:14:20.459Z,8.40
2017-10-24T03:16:46.786Z,8.40
2017-10-24T03:19:13.571Z,8.40
2017-10-24T03:21:39.903Z,8.40
2017-10-24T03:24:06.716Z,8.40
2017-10-24T03:26:33.057Z,8.40
2017-10-24T03:28:59.387Z,8.40
2017-10-24T03:31:26.067Z,8.40
2017-10-24T03:33:53.097Z,8.40
2017-10-24T03:36:19.412Z,8.40
2017-10-24T03:38:45.700Z,8.40
2017-10-24T03:41:12.051Z,8.40
2017-10-24T03:43:38.341Z,8.40
2017-10-24T03:46:05.196Z,8.30
2017-10-24T03:48:31.826Z,8.40
2017-10-24T03:50:58.164Z,8.30
2017-10-24T03:53:24.458Z,8.40
2017-10-24T03:55:51.635Z,8.40
2017-10-24T03:58:17.931Z,8.40
2017-10-24T04:00:44.354Z,8.50
2017-10-24T04:03:10.879Z,8.50
2017-10-24T04:05:37.866Z,8.50
2017-10-24T04:08:04.509Z,8.50
2017-10-24T04:10:30.814Z,8.50
2017-10-24T04:12:57.443Z,8.50
2017-10-24T04:15:23.770Z,8.40
2017-10-24T04:17:50.540Z,8.40
2017-10-24T04:20:17.275Z,8.40
2017-10-24T04:22:44.035Z,8.40
2017-10-24T04:25:10.364Z,8.40
2017-10-24T04:27:36.684Z,8.50
2017-10-24T04:30:03.164Z,8.40
2017-10-24T04:32:31.049Z,8.50
2017-10-24T04:34:57.715Z,8.50
2017-10-24T04:37:24.797Z,8.70
2017-10-24T04:39:51.119Z,8.70
2017-10-24T04:42:17.707Z,8.70
2017-10-24T04:44:44.439Z,8.80
2017-10-24T04:47:11.303Z,8.80
2017-10-24T04:49:38.268Z,8.90
2017-10-24T04:52:05.766Z,8.90
2017-10-24T04:54:32.464Z,8.90
2017-10-24T04:56:59.276Z,8.80
2017-10-24T04:59:25.969Z,8.90
2017-10-24T05:01:52.734Z,8.80
2017-10-24T05:04:20.270Z,8.80
2017-10-24T05:06:46.572Z,8.80
2017-10-24T05:09:12.879Z,8.80
2017-10-24T05:11:39.225Z,8.80
2017-10-24T05:14:05.527Z,8.80
2017-10-24T05:16:31.913Z,8.80
2017-10-24T05:18:58.745Z,8.80
2017-10-24T05:21:25.071Z,8.70
2017-10-24T05:23:52.115Z,8.60
2017-10-24T05:26:19.754Z,8.70
2017-10-24T05:28:46.905Z,8.60
2017-10-24T05:31:13.776Z,8.70
2017-10-24T05:33:40.831Z,8.70
2017-10-24T05:36:08.347Z,8.70
2017-10-24T05:38:34.672Z,8.70
2017-10-24T05:41:01.367Z,8.70
2017-10-24T05:43:27.658Z,8.70
2017-10-24T05:45:53.972Z,8.70
2017-10-24T05:48:20.322Z,8.70
2017-10-24T05:50:46.619Z,8.70
2017-10-24T05:53:13.758Z,8.70
2017-10-24T05:55:40.103Z,8.70
2017-10-24T05:58:07.618Z,8.70
2017-10-24T06:00:33.937Z,8.70
2017-10-24T06:03:00.695Z,8.70
2017-10-24T06:05:27.511Z,8.70
2017-10-24T06:07:55.113Z,8.70
2017-10-24T06:10:21.406Z,8.70
2017-10-24T06:12:48.455Z,8.80
2017-10-24T06:15:16.153Z,8.80
2017-10-24T06:17:43.307Z,8.80
2017-10-24T06:20:09.639Z,8.80
2017-10-24T06:22:35.929Z,8.70
2017-10-24T06:25:02.391Z,8.70
2017-10-24T06:27:29.898Z,8.70
2017-10-24T06:29:56.576Z,8.70
2017-10-24T06:32:22.879Z,8.80
2017-10-24T06:34:49.643Z,8.90
2017-10-24T06:37:15.975Z,8.90
2017-10-24T06:39:42.897Z,8.90
2017-10-24T06:42:09.228Z,8.90
2017-10-24T06:44:35.982Z,8.90
2017-10-24T06:47:02.299Z,8.90
2017-10-24T06:49:28.607Z,8.90
2017-10-24T06:51:55.063Z,8.90
2017-10-24T06:54:22.559Z,8.90
2017-10-24T06:56:48.867Z,8.90
2017-10-24T06:59:16.426Z,8.90
2017-10-24T07:01:43.459Z,8.90
2017-10-24T07:04:09.804Z,8.90
2017-10-24T07:06:37.219Z,8.90
2017-10-24T07:09:03.627Z,8.90
2017-10-24T07:11:29.967Z,9.00
2017-10-24T07:13:56.740Z,9.00
2017-10-24T07:16:23.043Z,9.10
2017-10-24T07:18:49.798Z,9.20
2017-10-24T07:21:16.115Z,9.30
2017-10-24T07:23:43.183Z,9.40
2017-10-24T07:26:09.868Z,9.40
2017-10-24T07:28:36.541Z,9.50
2017-10-24T07:31:03.406Z,9.50
2017-10-24T07:33:30.842Z,9.50
2017-10-24T07:35:57.625Z,9.50
2017-10-24T07:38:24.279Z,9.50
2017-10-24T07:40:51.015Z,9.50
2017-10-24T07:43:17.979Z,9.50
2017-10-24T07:45:44.812Z,9.60
2017-10-24T07:48:11.582Z,9.60
2017-10-24T07:50:38.365Z,9.70
2017-10-24T07:53:05.105Z,9.70
2017-10-24T07:55:31.819Z,9.70
2017-10-24T07:57:58.892Z,9.70
2017-10-24T08:00:25.726Z,9.80
2017-10-24T08:02:52.447Z,9.80
2017-10-24T08:05:19.180Z,9.80
2017-10-24T08:07:46.791Z,9.70
2017-10-24T08:10:13.531Z,9.70
2017-10-24T08:12:40.351Z,9.70
2017-10-24T08:15:06.987Z,9.60
2017-10-24T08:17:33.753Z,9.70
2017-10-24T08:20:00.600Z,9.70
2017-10-24T08:22:27.292Z,9.80
2017-10-24T08:24:54.237Z,9.90
2017-10-24T08:27:21.078Z,10.00
2017-10-24T08:29:47.838Z,10.10
2017-10-24T08:32:14.882Z,10.10
2017-10-24T08:34:42.475Z,10.10
2017-10-24T08:37:10.078Z,10.20
2017-10-24T08:39:36.833Z,10.20
2017-10-24T08:42:03.586Z,10.20
2017-10-24T08:44:29.900Z,10.30
2017-10-24T08:46:56.207Z,10.50
2017-10-24T08:49:23.291Z,10.70
2017-10-24T08:51:49.599Z,10.70
2017-10-24T08:54:17.018Z,10.90
2017-10-24T08:56:43.398Z,10.90
2017-10-24T08:59:10.927Z,10.90
2017-10-24T09:01:37.275Z,10.80
2017-10-24T09:04:03.641Z,10.90
2017-10-24T09:06:30.551Z,11.00
2017-10-24T09:09:20.894Z,11.00
2017-10-24T09:11:56.593Z,11.10
2017-10-24T09:14:23.957Z,11.20
2017-10-24T09:16:53.276Z,11.30
2017-10-24T09:19:42.879Z,11.40
2017-10-24T09:22:20.023Z,11.40
2017-10-24T09:24:48.035Z,11.50
2017-10-24T09:27:14.881Z,11.40
2017-10-24T09:29:41.198Z,11.50
2017-10-24T09:32:08.237Z,11.50
2017-10-24T09:34:35.927Z,11.70
2017-10-24T09:37:02.273Z,11.60
2017-10-24T09:39:28.630Z,11.70
2017-10-24T09:41:55.539Z,11.80
2017-10-24T09:44:21.890Z,11.90
2017-10-24T09:46:48.220Z,12.00
2017-10-24T09:49:14.593Z,12.00
2017-10-24T09:51:43.182Z,12.10
2017-10-24T09:54:09.517Z,12.10
2017-10-24T09:56:45.699Z,12.10
2017-10-24T09:59:14.393Z,12.20
2017-10-24T10:01:47.641Z,12.20
2017-10-24T10:04:15.279Z,12.30
2017-10-24T10:07:01.470Z,12.50
2017-10-24T10:09:27.833Z,12.50
2017-10-24T10:11:54.226Z,12.60
2017-10-24T10:14:22.374Z,12.60
2017-10-24T10:16:48.783Z,12.60
2017-10-24T10:19:15.442Z,12.60
2017-10-24T10:21:42.535Z,12.60
2017-10-24T10:24:17.738Z,12.60
2017-10-24T10:26:44.118Z,12.60
2017-10-24T10:29:11.634Z,12.60
2017-10-24T10:31:37.981Z,12.60
2017-10-24T10:34:04.808Z,12.50
2017-10-24T10:36:31.126Z,12.40
2017-10-24T10:38:57.480Z,12.40
2017-10-24T10:41:24.175Z,12.40
2017-10-24T10:43:50.503Z,12.50
2017-10-24T10:46:16.846Z,12.50
2017-10-24T10:48:43.192Z,12.40
2017-10-24T10:51:10.593Z,12.50
2017-10-24T10:53:36.891Z,12.50
2017-10-24T10:56:04.011Z,12.50
2017-10-24T10:58:31.101Z,12.50
2017-10-24T11:00:58.174Z,12.40
2017-10-24T11:03:24.958Z,12.40
2017-10-24T11:05:51.920Z,12.40
2017-10-24T11:08:18.236Z,12.40
2017-10-24T11:10:44.559Z,12.40
2017-10-24T11:13:10.890Z,12.40
2017-10-24T11:15:37.210Z,12.40
2017-10-24T11:18:04.166Z,12.50
2017-10-24T11:20:30.460Z,12.40
2017-10-24T11:22:57.868Z,12.50
2017-10-24T11:25:24.172Z,12.50
2017-10-24T11:27:51.660Z,12.50
2017-10-24T11:30:17.958Z,12.50
2017-10-24T11:32:44.614Z,12.50
2017-10-24T11:35:11.419Z,12.50
2017-10-24T11:37:37.717Z,12.60
2017-10-24T11:40:04.055Z,12.70
2017-10-24T11:42:30.395Z,12.80
2017-10-24T11:44:56.719Z,12.80
2017-10-24T11:47:24.258Z,13.00
2017-10-24T11:49:50.587Z,12.90
2017-10-24T11:52:17.271Z,13.00
2017-10-24T11:54:44.012Z,13.10
2017-10-24T11:57:10.387Z,13.20
2017-10-24T11:59:37.370Z,13.20
2017-10-24T12:02:04.303Z,13.20
2017-10-24T12:04:30.631Z,13.20
2017-10-24T12:06:57.543Z,13.10
2017-10-24T12:09:23.872Z,13.20
2017-10-24T12:11:50.980Z,13.20
2017-10-24T12:14:17.920Z,13.20
2017-10-24T12:16:44.251Z,13.20
2017-10-24T12:19:11.163Z,13.10
2017-10-24T12:21:37.955Z,13.00
2017-10-24T12:24:04.907Z,13.10
2017-10-24T12:26:31.212Z,13.10
2017-10-24T12:28:57.540Z,13.10
2017-10-24T12:31:23.979Z,13.20
2017-10-24T12:33:50.298Z,13.30
2017-10-24T12:36:18.182Z,13.40
2017-10-24T12:38:44.524Z,13.40
2017-10-24T12:41:10.876Z,13.40
2017-10-24T12:43:37.252Z,13.40
2017-10-24T12:46:14.359Z,13.50
2017-10-24T12:48:43.535Z,13.60
2017-10-24T12:51:09.877Z,13.60
2017-10-24T12:53:36.195Z,13.70
2017-10-24T12:56:02.567Z,13.80
2017-10-24T12:58:45.931Z,13.90
2017-10-24T13:01:12.575Z,13.90
2017-10-24T13:03:38.916Z,14.00
2017-10-24T13:06:05.792Z,14.00
2017-10-24T13:08:32.082Z,14.00
2017-10-24T13:10:58.431Z,13.90
2017-10-24T13:13:25.236Z,13.80
2017-10-24T13:15:52.331Z,13.70
2017-10-24T13:18:19.020Z,13.60
2017-10-24T13:20:45.323Z,13.70
2017-10-24T13:23:12.188Z,13.70
2017-10-24T13:25:38.491Z,13.60
2017-10-24T13:28:04.785Z,13.70
2017-10-24T13:30:31.869Z,13.70
2017-10-24T13:32:58.646Z,13.70
2017-10-24T13:35:25.436Z,13.70
2017-10-24T13:37:52.484Z,13.60
2017-10-24T13:40:19.518Z,13.70
2017-10-24T13:42:46.190Z,13.70
2017-10-24T13:45:13.641Z,13.50
2017-10-24T13:47:39.962Z,13.50
2017-10-24T13:50:06.268Z,13.50
2017-10-24T13:52:32.883Z,13.50
2017-10-24T13:54:59.180Z,13.50
2017-10-24T13:57:26.179Z,13.50
2017-10-24T13:59:52.846Z,13.50
2017-10-24T14:02:19.190Z,13.50
2017-10-24T14:04:51.443Z,13.50
2017-10-24T14:07:24.251Z,13.50
2017-10-24T14:09:57.835Z,13.50
2017-10-24T14:12:24.723Z,13.50
2017-10-24T14:14:51.031Z,13.60
2017-10-24T14:17:17.882Z,13.50
2017-10-24T14:19:44.208Z,13.50
2017-10-24T14:22:10.514Z,13.60
2017-10-24T14:24:37.432Z,13.60
2017-10-24T14:27:05.051Z,13.50
2017-10-24T14:29:31.353Z,13.60
2017-10-24T14:31:58.680Z,13.50
2017-10-24T14:34:25.586Z,13.50
2017-10-24T14:36:52.338Z,13.40
2017-10-24T14:39:18.643Z,13.40
2017-10-24T14:41:45.451Z,13.50
2017-10-24T14:44:11.765Z,13.50
2017-10-24T14:46:38.075Z,13.30
2017-10-24T14:49:04.518Z,13.20
2017-10-24T14:51:30.830Z,13.10
2017-10-24T14:53:58.581Z,13.00
2017-10-24T14:56:25.242Z,13.00
2017-10-24T14:58:52.945Z,12.80
2017-10-24T15:01:19.266Z,12.70
2017-10-24T15:03:45.569Z,12.80
2017-10-24T15:06:12.350Z,12.80
2017-10-24T15:08:38.658Z,12.80
2017-10-24T15:11:05.697Z,12.60
2017-10-24T15:13:32.040Z,12.60
2017-10-24T15:15:58.374Z,12.60
2017-10-24T15:18:25.249Z,12.50
2017-10-24T15:20:51.572Z,12.40
2017-10-24T15:23:18.622Z,12.40
2017-10-24T15:25:46.917Z,12.40
2017-10-24T15:28:14.300Z,12.40
2017-10-24T15:30:40.616Z,12.40
2017-10-24T15:33:06.954Z,12.40
2017-10-24T15:35:33.708Z,12.40
2017-10-24T15:38:00.704Z,12.40
2017-10-24T15:40:27.004Z,12.30
2017-10-24T15:42:53.936Z,12.20
2017-10-24T15:45:20.239Z,12.10
2017-10-24T15:47:46.610Z,12.10
2017-10-24T15:50:13.597Z,12.10
2017-10-24T15:52:40.315Z,12.10
2017-10-24T15:55:07.115Z,12.00
2017-10-24T15:57:33.429Z,12.00
2017-10-24T16:00:00.410Z,11.90
2017-10-24T16:02:26.762Z,11.80
2017-10-24T16:04:54.267Z,11.70
2017-10-24T16:07:21.078Z,11.70
2017-10-24T16:09:48.138Z,11.60
2017-10-24T16:12:14.439Z,11.60
2017-10-24T16:14:40.782Z,11.50
2017-10-24T16:17:07.479Z,11.40
2017-10-24T16:19:34.289Z,11.30
2017-10-24T16:22:01.730Z,11.30
2017-10-24T16:24:28.103Z,11.30
2017-10-24T16:26:54.964Z,11.20
2017-10-24T16:29:21.309Z,11.20
2017-10-24T16:31:48.107Z,11.20
2017-10-24T16:34:14.827Z,11.10
2017-10-24T16:36:41.549Z,11.00
2017-10-24T16:39:07.870Z,10.90
2017-10-24T16:41:35.485Z,10.90
2017-10-24T16:44:01.829Z,10.90
2017-10-24T16:46:28.626Z,10.80
2017-10-24T16:48:55.651Z,10.90
2017-10-24T16:51:23.331Z,10.70
2017-10-24T16:53:49.667Z,10.70
2017-10-24T16:56:16.468Z,10.70
2017-10-24T16:58:43.138Z,10.70
2017-10-24T17:01:10.205Z,10.70
2017-10-24T17:03:37.869Z,10.70
2017-10-24T17:06:04.919Z,10.80
2017-10-24T17:08:32.358Z,10.90
2017-10-24T17:10:58.675Z,10.80
2017-10-24T17:13:24.998Z,10.80
2017-10-24T17:15:51.664Z,10.70
2017-10-24T17:18:18.599Z,10.70
2017-10-24T17:20:45.331Z,10.70
2017-10-24T17:23:11.671Z,10.60
2017-10-24T17:25:38.587Z,10.70
2017-10-24T17:28:04.907Z,10.70
2017-10-24T17:30:31.987Z,10.60
2017-10-24T17:32:58.783Z,10.60
2017-10-24T17:35:25.604Z,10.60
2017-10-24T17:37:51.952Z,10.50
2017-10-24T17:40:18.351Z,10.40
2017-10-24T17:42:44.684Z,10.40
2017-10-24T17:45:11.303Z,10.30
2017-10-24T17:47:38.996Z,10.30
2017-10-24T17:50:05.961Z,10.30
2017-10-24T17:52:32.859Z,10.30
2017-10-24T17:54:59.718Z,10.30
2017-10-24T17:57:26.765Z,10.30
2017-10-24T17:59:53.078Z,10.20
2017-10-24T18:02:19.672Z,10.20
2017-10-24T18:04:45.995Z,10.20
2017-10-24T18:07:13.659Z,10.30
2017-10-24T18:09:40.734Z,10.30
2017-10-24T18:12:07.072Z,10.30
2017-10-24T18:14:33.443Z,10.30
2017-10-24T18:16:59.755Z,10.30
2017-10-24T18:19:26.672Z,10.30
2017-10-24T18:21:54.188Z,10.30
2017-10-24T18:24:20.500Z,10.30
2017-10-24T18:26:46.815Z,10.40
2017-10-24T18:29:13.951Z,10.30
2017-10-24T18:31:41.376Z,10.40
2017-10-24T18:34:08.274Z,10.30
2017-10-24T18:36:35.659Z,10.30
2017-10-24T18:39:02.006Z,10.30
2017-10-24T18:41:28.716Z,10.30
2017-10-24T18:43:55.843Z,10.30
2017-10-24T18:46:22.748Z,10.30
2017-10-24T18:48:49.588Z,10.40
2017-10-24T18:51:16.581Z,10.40
2017-10-24T18:53:43.339Z,10.40
2017-10-24T18:56:10.005Z,10.40
2017-10-24T18:58:37.075Z,10.40
2017-10-24T19:01:03.449Z,10.40
2017-10-24T19:03:29.815Z,10.30
2017-10-24T19:05:56.487Z,10.40
2017-10-24T19:08:24.043Z,10.30
2017-10-24T19:10:51.136Z,10.30
2017-10-24T19:13:17.499Z,10.30
2017-10-24T19:15:43.855Z,10.30
2017-10-24T19:18:10.787Z,10.20
2017-10-24T19:20:37.611Z,10.20
2017-10-24T19:23:03.917Z,10.20
2017-10-24T19:25:30.266Z,10.10
2017-10-24T19:27:56.982Z,10.00
2017-10-24T19:30:23.372Z,10.10
2017-10-24T19:32:49.689Z,10.10
2017-10-24T19:35:16.548Z,10.00
2017-10-24T19:37:42.858Z,10.10
2017-10-24T19:40:09.572Z,10.00
2017-10-24T19:42:36.295Z,10.00
2017-10-24T19:45:02.616Z,10.00
2017-10-24T19:47:28.908Z,10.00
2017-10-24T19:49:55.985Z,10.10
2017-10-24T19:52:22.946Z,10.10
2017-10-24T19:54:49.243Z,10.10
2017-10-24T19:57:16.620Z,10.20
2017-10-24T19:59:43.003Z,10.20
2017-10-24T20:02:09.651Z,10.20
2017-10-24T20:04:35.980Z,10.20
2017-10-24T20:07:02.863Z,10.30
2017-10-24T20:09:30.395Z,10.20
2017-10-24T20:11:56.716Z,10.20
2017-10-24T20:14:23.016Z,10.20
2017-10-24T20:16:50.580Z,10.30
2017-10-24T20:19:18.265Z,10.30
2017-10-24T20:21:45.232Z,10.30
2017-10-24T20:24:11.551Z,10.40
2017-10-24T20:26:38.605Z,10.30
2017-10-24T20:29:05.499Z,10.30
2017-10-24T20:31:32.271Z,10.40
2017-10-24T20:33:59.788Z,10.30
2017-10-24T20:36:26.107Z,10.40
2017-10-24T20:38:52.773Z,10.40
2017-10-24T20:41:19.588Z,10.40
2017-10-24T20:43:45.879Z,10.30
2017-10-24T20:46:12.190Z,10.40
2017-10-24T20:48:38.549Z,10.40
2017-10-24T20:51:04.867Z,10.40
2017-10-24T20:53:31.288Z,10.40
2017-10-24T20:55:57.630Z,10.30
2017-10-24T20:58:24.551Z,10.30
2017-10-24T21:00:50.890Z,10.30
2017-10-24T21:03:17.219Z,10.30
2017-10-24T21:05:43.572Z,10.40
2017-10-24T21:08:10.407Z,10.40
2017-10-24T21:10:36.729Z,10.40
2017-10-24T21:13:03.783Z,10.40
2017-10-24T21:15:31.322Z,10.40
2017-10-24T21:17:58.236Z,10.30
2017-10-24T21:20:24.550Z,10.30
2017-10-24T21:22:51.292Z,10.20
2017-10-24T21:25:18.301Z,10.20
2017-10-24T21:27:44.970Z,10.20
2017-10-24T21:30:12.015Z,10.10
2017-10-24T21:32:39.047Z,10.10
2017-10-24T21:35:05.819Z,10.10
2017-10-24T21:37:33.319Z,10.10
2017-10-24T21:39:59.630Z,10.10
2017-10-24T21:42:25.919Z,10.10
2017-10-24T21:44:52.261Z,10.20
2017-10-24T21:47:18.913Z,10.20
2017-10-24T21:49:45.217Z,10.20
2017-10-24T21:52:11.901Z,10.20
2017-10-24T21:54:38.228Z,10.20
2017-10-24T21:57:05.755Z,10.20
2017-10-24T21:59:32.561Z,10.30
2017-10-24T22:02:00.109Z,10.20
2017-10-24T22:04:26.410Z,10.30
2017-10-24T22:06:52.718Z,10.30
2017-10-24T22:09:19.540Z,10.30
2017-10-24T22:11:46.910Z,10.30
2017-10-24T22:14:13.975Z,10.30
2017-10-24T22:16:40.287Z,10.30
2017-10-24T22:19:07.703Z,10.30
2017-10-24T22:21:34.455Z,10.30
2017-10-24T22:24:00.764Z,10.40
2017-10-24T22:26:27.531Z,10.30
2017-10-24T22:28:53.861Z,10.40
2017-10-24T22:31:20.708Z,10.40
2017-10-24T22:33:47.043Z,10.40
2017-10-24T22:36:13.803Z,10.40
2017-10-24T22:38:40.531Z,10.40
2017-10-24T22:41:06.827Z,10.40
2017-10-24T22:43:33.865Z,10.40
2017-10-24T22:46:00.956Z,10.40
2017-10-24T22:48:27.255Z,10.40
2017-10-24T22:50:53.683Z,10.50
2017-10-24T22:53:20.025Z,10.40
2017-10-24T22:55:46.326Z,10.40
2017-10-24T22:58:13.324Z,10.50
2017-10-24T23:00:40.991Z,10.50
2017-10-24T23:03:08.030Z,10.50
2017-10-24T23:05:34.346Z,10.50
2017-10-24T23:08:01.121Z,10.50
2017-10-24T23:10:27.449Z,10.60
2017-10-24T23:12:53.761Z,10.50
2017-10-24T23:15:20.945Z,10.60
2017-10-24T23:17:47.749Z,10.60
2017-10-24T23:20:14.494Z,10.60
2017-10-24T23:22:40.790Z,10.60
2017-10-24T23:25:07.836Z,10.60
2017-10-24T23:27:34.524Z,10.60
2017-10-24T23:30:01.475Z,10.60
2017-10-24T23:32:28.364Z,10.60
2017-10-24T23:34:55.279Z,10.60
2017-10-24T23:37:21.581Z,10.60
2017-10-24T23:39:47.891Z,10.60
2017-10-24T23:42:14.223Z,10.60
2017-10-24T23:44:40.559Z,10.60
2017-10-24T23:47:06.958Z,10.60
2017-10-24T23:49:33.294Z,10.60
2017-10-24T23:52:00.085Z,10.60
2017-10-24T23:54:26.387Z,10.60
2017-10-24T23:56:52.670Z,10.60
2017-10-24T23:59:19.866Z,10.60
